createdAt,value
2019-03-26T00:02:01.658Z,20.17
2019-03-26T00:04:33.956Z,20.70
2019-03-26T00:07:03.675Z,20.87
2019-03-26T00:09:33.389Z,25.70
2019-03-26T00:12:03.969Z,22.73
2019-03-26T00:14:34.131Z,19.90
2019-03-26T00:17:03.779Z,13.73
2019-03-26T00:19:33.611Z,17.53
2019-03-26T00:22:03.183Z,16.80
2019-03-26T00:24:36.199Z,22.57
2019-03-26T00:27:07.787Z,20.30
2019-03-26T00:29:37.313Z,16.20
2019-03-26T00:32:08.403Z,20.87
2019-03-26T00:34:38.105Z,22.57
2019-03-26T00:37:07.749Z,21.60
2019-03-26T00:39:37.685Z,16.57
2019-03-26T00:42:07.386Z,23.03
2019-03-26T00:44:37.046Z,20.00
2019-03-26T00:47:06.812Z,17.17
2019-03-26T00:49:36.810Z,20.67
2019-03-26T00:52:06.452Z,18.57
2019-03-26T00:54:39.140Z,23.23
2019-03-26T00:57:09.068Z,25.60
2019-03-26T00:59:38.820Z,21.07
2019-03-26T01:02:08.894Z,27.13
2019-03-26T01:04:40.331Z,20.63
2019-03-26T01:07:10.048Z,18.27
2019-03-26T01:09:39.814Z,27.07
2019-03-26T01:12:10.539Z,18.43
2019-03-26T01:14:40.232Z,20.70
2019-03-26T01:17:14.345Z,21.33
2019-03-26T01:19:44.059Z,16.30
2019-03-26T01:22:17.826Z,25.37
2019-03-26T01:24:47.508Z,15.57
2019-03-26T01:27:18.191Z,18.73
2019-03-26T01:29:47.869Z,25.13
2019-03-26T01:32:17.597Z,18.83
2019-03-26T01:34:47.247Z,26.33
2019-03-26T01:37:18.109Z,28.27
2019-03-26T01:39:47.661Z,27.93
2019-03-26T01:42:17.393Z,28.57
2019-03-26T01:44:47.099Z,24.80
2019-03-26T01:47:16.740Z,19.37
2019-03-26T01:49:46.433Z,28.50
2019-03-26T01:52:16.060Z,28.73
2019-03-26T01:54:46.642Z,21.77
2019-03-26T01:57:16.259Z,25.73
2019-03-26T01:59:45.992Z,19.70
2019-03-26T02:02:17.515Z,21.70
2019-03-26T02:04:59.184Z,22.77
2019-03-26T02:07:19.407Z,23.40
2019-03-26T02:09:49.046Z,23.83
2019-03-26T02:12:18.682Z,24.37
2019-03-26T02:14:48.924Z,24.80
2019-03-26T02:17:18.993Z,30.50
2019-03-26T02:19:48.774Z,23.00
2019-03-26T02:22:18.340Z,21.90
2019-03-26T02:24:47.959Z,27.07
2019-03-26T02:27:17.693Z,20.43
2019-03-26T02:29:47.324Z,24.93
2019-03-26T02:32:17.413Z,28.17
2019-03-26T02:34:47.096Z,29.17
2019-03-26T02:37:16.941Z,26.23
2019-03-26T02:39:46.745Z,30.00
2019-03-26T02:42:16.534Z,19.00
2019-03-26T02:44:46.230Z,22.47
2019-03-26T02:47:19.654Z,31.63
2019-03-26T02:49:50.287Z,35.87
2019-03-26T02:52:19.937Z,34.33
2019-03-26T02:54:49.561Z,31.37
2019-03-26T02:57:19.352Z,36.10
2019-03-26T02:59:49.239Z,29.50
2019-03-26T03:02:19.192Z,28.43
2019-03-26T03:04:48.844Z,28.37
2019-03-26T03:07:21.106Z,25.40
2019-03-26T03:09:51.215Z,20.63
2019-03-26T03:12:20.815Z,37.20
2019-03-26T03:14:51.236Z,31.17
2019-03-26T03:17:21.608Z,33.80
2019-03-26T03:19:51.291Z,33.57
2019-03-26T03:22:20.967Z,37.23
2019-03-26T03:27:27.045Z,24.23
2019-03-26T03:29:57.735Z,26.00
2019-03-26T03:32:27.697Z,30.27
2019-03-26T03:34:57.407Z,36.67
2019-03-26T03:37:27.111Z,28.90
2019-03-26T03:39:57.340Z,23.93
2019-03-26T03:42:27.328Z,35.93
2019-03-26T03:44:56.981Z,21.20
2019-03-26T03:47:30.339Z,26.83
2019-03-26T03:50:01.877Z,25.80
2019-03-26T03:52:35.761Z,23.77
2019-03-26T03:55:05.674Z,29.60
2019-03-26T03:57:38.076Z,31.50
2019-03-26T04:00:11.305Z,22.13
2019-03-26T04:02:40.956Z,28.43
2019-03-26T04:05:10.662Z,23.70
2019-03-26T04:07:42.446Z,36.63
2019-03-26T04:10:12.069Z,32.47
2019-03-26T04:12:41.719Z,32.17
2019-03-26T04:15:11.534Z,28.40
2019-03-26T04:17:42.561Z,22.17
2019-03-26T04:20:13.401Z,33.63
2019-03-26T04:22:43.081Z,32.57
2019-03-26T04:25:12.755Z,18.53
2019-03-26T04:27:42.465Z,23.10
2019-03-26T04:30:14.672Z,22.90
2019-03-26T04:32:44.331Z,24.70
2019-03-26T04:35:14.130Z,19.17
2019-03-26T04:37:43.930Z,29.93
2019-03-26T04:40:15.081Z,21.80
2019-03-26T04:42:44.790Z,12.93
2019-03-26T04:45:14.436Z,22.50
2019-03-26T04:47:46.412Z,26.10
2019-03-26T04:50:16.322Z,29.03
2019-03-26T04:52:49.739Z,23.47
2019-03-26T04:55:19.380Z,24.03
2019-03-26T04:57:49.161Z,25.43
2019-03-26T05:00:20.159Z,24.77
2019-03-26T05:02:51.392Z,24.10
2019-03-26T05:05:21.150Z,28.77
2019-03-26T05:07:51.846Z,18.17
2019-03-26T05:10:21.936Z,31.30
2019-03-26T05:12:51.875Z,28.17
2019-03-26T05:15:21.829Z,19.27
2019-03-26T05:17:51.468Z,25.33
2019-03-26T05:20:21.443Z,31.57
2019-03-26T05:22:53.183Z,28.03
2019-03-26T05:25:24.563Z,26.80
2019-03-26T05:27:54.144Z,22.60
2019-03-26T05:30:24.066Z,18.93
2019-03-26T05:32:53.628Z,22.83
2019-03-26T05:35:24.722Z,20.77
2019-03-26T05:37:54.833Z,21.20
2019-03-26T05:40:25.086Z,31.77
2019-03-26T05:42:55.693Z,21.50
2019-03-26T05:45:25.318Z,24.83
2019-03-26T05:47:54.940Z,20.63
2019-03-26T05:50:26.573Z,33.67
2019-03-26T05:52:57.314Z,23.67
2019-03-26T05:55:28.142Z,17.17
2019-03-26T05:57:57.860Z,24.77
2019-03-26T06:00:27.888Z,16.87
2019-03-26T06:02:57.551Z,20.83
2019-03-26T06:05:28.659Z,17.83
2019-03-26T06:08:00.510Z,21.63
2019-03-26T06:10:30.114Z,21.97
2019-03-26T06:12:59.852Z,20.23
2019-03-26T06:15:29.529Z,21.57
2019-03-26T06:17:59.271Z,20.83
2019-03-26T06:20:28.849Z,18.30
2019-03-26T06:22:58.436Z,21.20
2019-03-26T06:25:28.202Z,19.97
2019-03-26T06:28:01.401Z,28.77
2019-03-26T06:30:31.059Z,17.63
2019-03-26T06:33:00.717Z,21.77
2019-03-26T06:35:30.795Z,22.13
2019-03-26T06:38:02.351Z,20.13
2019-03-26T06:40:32.021Z,22.37
2019-03-26T06:43:01.717Z,21.90
2019-03-26T06:45:32.962Z,28.47
2019-03-26T06:48:04.256Z,25.73
2019-03-26T06:50:33.950Z,24.90
2019-03-26T06:53:03.729Z,20.17
2019-03-26T06:55:33.377Z,20.73
2019-03-26T06:58:03.122Z,27.03
2019-03-26T07:00:33.479Z,35.60
2019-03-26T07:03:05.179Z,24.40
2019-03-26T07:05:35.828Z,25.60
2019-03-26T07:08:05.579Z,27.40
2019-03-26T07:10:36.418Z,29.57
2019-03-26T07:13:08.426Z,21.57
2019-03-26T07:15:38.122Z,21.87
2019-03-26T07:18:09.660Z,25.93
2019-03-26T07:20:39.426Z,19.53
2019-03-26T07:23:10.325Z,27.80
2019-03-26T07:25:40.270Z,23.30
2019-03-26T07:28:10.092Z,20.50
2019-03-26T07:30:41.581Z,21.80
2019-03-26T07:33:11.306Z,17.40
2019-03-26T07:35:41.040Z,21.83
2019-03-26T07:38:11.931Z,23.83
2019-03-26T07:40:41.625Z,22.80
2019-03-26T07:43:11.251Z,23.73
2019-03-26T07:45:40.913Z,20.13
2019-03-26T07:48:13.578Z,18.50
2019-03-26T07:50:43.249Z,16.30
2019-03-26T07:53:12.935Z,24.97
2019-03-26T07:55:43.977Z,26.40
2019-03-26T07:58:13.987Z,23.63
2019-03-26T08:00:43.817Z,20.37
2019-03-26T08:03:13.473Z,14.13
2019-03-26T08:05:43.105Z,18.77
2019-03-26T08:08:12.971Z,30.13
2019-03-26T08:10:42.618Z,19.53
2019-03-26T08:13:12.231Z,27.87
2019-03-26T08:15:43.277Z,18.73
2019-03-26T08:18:15.142Z,25.07
2019-03-26T08:20:45.892Z,23.77
2019-03-26T08:23:15.594Z,18.17
2019-03-26T08:25:45.214Z,21.20
2019-03-26T08:28:15.227Z,19.03
2019-03-26T08:30:45.028Z,18.77
2019-03-26T08:33:14.671Z,24.20
2019-03-26T08:35:44.296Z,21.90
2019-03-26T08:38:13.911Z,20.17
2019-03-26T08:40:43.544Z,27.40
2019-03-26T08:43:14.696Z,25.57
2019-03-26T08:45:44.364Z,17.93
2019-03-26T08:48:14.398Z,17.93
2019-03-26T08:50:44.110Z,20.53
2019-03-26T08:53:13.918Z,16.33
2019-03-26T08:55:43.512Z,21.20
2019-03-26T08:58:13.239Z,27.73
2019-03-26T09:00:42.948Z,19.27
2019-03-26T09:03:12.689Z,22.20
2019-03-26T09:05:43.289Z,25.10
2019-03-26T09:08:24.840Z,21.03
2019-03-26T09:10:51.618Z,19.67
2019-03-26T09:13:19.449Z,21.50
2019-03-26T09:15:49.186Z,20.50
2019-03-26T09:18:19.214Z,19.27
2019-03-26T09:20:50.259Z,27.00
2019-03-26T09:23:19.929Z,17.07
2019-03-26T09:25:49.691Z,19.13
2019-03-26T09:28:19.320Z,24.50
2019-03-26T09:30:49.045Z,17.17
2019-03-26T09:33:38.505Z,18.77
2019-03-26T09:36:10.472Z,25.93
2019-03-26T09:38:42.329Z,23.60
2019-03-26T09:41:13.467Z,15.47
2019-03-26T09:43:43.147Z,24.27
2019-03-26T09:46:12.759Z,29.60
2019-03-26T09:48:46.491Z,15.53
2019-03-26T09:51:20.712Z,20.37
2019-03-26T09:53:51.440Z,20.57
2019-03-26T09:56:29.283Z,16.03
2019-03-26T09:58:52.972Z,17.67
2019-03-26T10:01:24.075Z,15.40
2019-03-26T10:03:53.718Z,18.37
2019-03-26T10:06:24.175Z,15.27
2019-03-26T10:08:55.206Z,17.97
2019-03-26T10:11:24.872Z,18.37
2019-03-26T10:13:54.596Z,22.10
2019-03-26T10:16:27.237Z,22.60
2019-03-26T10:18:56.674Z,20.23
2019-03-26T10:21:26.432Z,13.93
2019-03-26T10:23:56.052Z,17.63
2019-03-26T10:26:25.688Z,16.33
2019-03-26T10:28:55.448Z,16.23
2019-03-26T10:31:25.350Z,16.63
2019-03-26T10:33:55.162Z,20.27
2019-03-26T10:36:25.054Z,17.00
2019-03-26T10:39:05.156Z,13.33
2019-03-26T10:41:45.119Z,18.63
2019-03-26T10:44:14.754Z,22.53
2019-03-26T10:46:44.687Z,15.30
2019-03-26T10:49:14.593Z,18.13
2019-03-26T10:51:45.564Z,17.70
2019-03-26T10:54:16.909Z,21.87
2019-03-26T10:56:46.668Z,12.03
2019-03-26T10:59:16.311Z,19.50
2019-03-26T11:01:45.953Z,14.20
2019-03-26T11:04:15.613Z,23.27
2019-03-26T11:06:46.391Z,18.07
2019-03-26T11:09:23.287Z,20.23
2019-03-26T11:11:48.054Z,23.87
2019-03-26T11:14:17.711Z,21.87
2019-03-26T11:16:48.679Z,14.83
2019-03-26T11:19:18.437Z,14.13
2019-03-26T11:21:48.075Z,16.27
2019-03-26T11:24:17.848Z,14.30
2019-03-26T11:26:49.034Z,16.57
2019-03-26T11:29:18.918Z,13.50
2019-03-26T11:31:52.346Z,23.57
2019-03-26T11:34:22.073Z,12.07
2019-03-26T11:36:51.719Z,14.43
2019-03-26T11:39:32.098Z,15.07
2019-03-26T11:41:52.745Z,17.17
2019-03-26T11:44:24.926Z,17.17
2019-03-26T11:46:54.583Z,13.73
2019-03-26T11:49:24.276Z,15.33
2019-03-26T11:51:53.914Z,13.87
2019-03-26T11:54:23.573Z,16.87
2019-03-26T11:56:54.938Z,13.73
2019-03-26T11:59:24.761Z,16.50
2019-03-26T12:01:56.803Z,17.90
2019-03-26T12:04:27.999Z,15.50
2019-03-26T12:06:59.711Z,17.60
2019-03-26T12:09:45.241Z,11.47
2019-03-26T12:12:03.647Z,13.47
2019-03-26T12:14:33.352Z,16.80
2019-03-26T12:17:03.794Z,13.30
2019-03-26T12:19:33.653Z,17.03
2019-03-26T12:22:03.307Z,13.93
2019-03-26T12:24:32.883Z,11.97
2019-03-26T12:27:02.545Z,15.60
2019-03-26T12:29:33.138Z,9.63
2019-03-26T12:32:02.806Z,14.90
2019-03-26T12:34:33.218Z,8.67
2019-03-26T12:37:02.871Z,16.60
2019-03-26T12:39:32.479Z,19.27
2019-03-26T12:42:04.954Z,23.63
2019-03-26T12:44:34.758Z,14.90
2019-03-26T12:47:05.915Z,12.00
2019-03-26T12:49:35.611Z,14.43
2019-03-26T12:52:05.262Z,13.70
2019-03-26T12:54:36.507Z,18.17
2019-03-26T12:57:06.495Z,13.57
2019-03-26T12:59:37.087Z,17.13
2019-03-26T13:02:06.818Z,21.47
2019-03-26T13:04:38.509Z,12.87
2019-03-26T13:07:07.938Z,17.23
2019-03-26T13:09:41.755Z,15.53
2019-03-26T13:12:10.661Z,13.13
2019-03-26T13:14:42.395Z,14.77
2019-03-26T13:17:12.035Z,13.00
2019-03-26T13:19:41.975Z,14.40
2019-03-26T13:22:11.961Z,11.13
2019-03-26T13:24:41.679Z,12.33
2019-03-26T13:27:11.336Z,16.43
2019-03-26T13:29:42.524Z,13.70
2019-03-26T13:32:13.322Z,19.63
2019-03-26T13:34:43.004Z,12.53
2019-03-26T13:37:13.774Z,14.10
2019-03-26T13:39:43.636Z,14.13
2019-03-26T13:42:13.404Z,13.33
2019-03-26T13:44:43.090Z,15.60
2019-03-26T13:47:13.086Z,13.50
2019-03-26T13:50:01.990Z,13.57
2019-03-26T13:52:33.012Z,14.77
2019-03-26T13:55:03.758Z,12.17
2019-03-26T13:57:33.456Z,12.53
2019-03-26T14:00:03.710Z,16.13
2019-03-26T14:02:33.427Z,14.57
2019-03-26T14:05:03.119Z,12.63
2019-03-26T14:07:32.864Z,12.27
2019-03-26T14:10:40.247Z,16.70
2019-03-26T14:13:00.430Z,11.83
2019-03-26T14:15:30.487Z,16.40
2019-03-26T14:18:01.919Z,14.30
2019-03-26T14:20:32.169Z,12.13
2019-03-26T14:23:01.834Z,11.57
2019-03-26T14:25:32.619Z,17.73
2019-03-26T14:28:02.299Z,18.23
2019-03-26T14:30:39.572Z,12.40
2019-03-26T14:33:10.587Z,11.83
2019-03-26T14:35:40.247Z,14.50
2019-03-26T14:38:10.016Z,22.27
2019-03-26T14:40:53.517Z,15.67
2019-03-26T14:43:12.377Z,17.87
2019-03-26T14:45:42.474Z,19.67
2019-03-26T14:48:12.300Z,14.93
2019-03-26T14:50:41.946Z,13.67
2019-03-26T14:53:11.599Z,15.57
2019-03-26T14:55:41.599Z,18.63
2019-03-26T14:58:11.293Z,10.40
2019-03-26T15:00:41.090Z,19.63
2019-03-26T15:03:10.771Z,17.33
2019-03-26T15:05:40.780Z,18.23
2019-03-26T15:08:10.746Z,12.57
2019-03-26T15:10:40.468Z,17.90
2019-03-26T15:13:10.207Z,16.20
2019-03-26T15:15:40.442Z,21.10
2019-03-26T15:18:10.106Z,19.17
2019-03-26T15:20:39.760Z,20.13
2019-03-26T15:23:09.658Z,22.83
2019-03-26T15:25:40.853Z,19.13
2019-03-26T15:28:11.898Z,15.70
2019-03-26T15:30:45.038Z,27.83
2019-03-26T15:33:14.687Z,22.87
2019-03-26T15:35:44.395Z,18.37
2019-03-26T15:38:14.800Z,23.53
2019-03-26T15:40:44.539Z,23.87
2019-03-26T15:43:14.235Z,18.53
2019-03-26T15:45:43.970Z,25.30
2019-03-26T15:48:15.099Z,23.13
2019-03-26T15:50:46.473Z,22.27
2019-03-26T15:53:16.321Z,32.80
2019-03-26T15:55:46.390Z,22.63
2019-03-26T15:58:16.963Z,29.63
2019-03-26T16:00:49.054Z,33.23
2019-03-26T16:03:22.178Z,35.17
2019-03-26T16:05:53.706Z,28.73
2019-03-26T16:08:23.442Z,26.87
2019-03-26T16:11:12.118Z,36.23
2019-03-26T16:13:41.800Z,26.83
2019-03-26T16:16:11.453Z,39.27
2019-03-26T16:18:41.142Z,27.30
2019-03-26T16:21:12.072Z,36.93
2019-03-26T16:23:41.714Z,41.47
2019-03-26T16:26:11.294Z,31.37
2019-03-26T16:28:41.098Z,36.17
2019-03-26T16:31:12.518Z,33.67
2019-03-26T16:33:45.326Z,34.30
2019-03-26T16:36:15.126Z,31.40
2019-03-26T16:38:47.190Z,31.27
2019-03-26T16:41:16.903Z,37.90
2019-03-26T16:43:46.582Z,39.20
2019-03-26T16:46:17.700Z,44.97
2019-03-26T16:48:47.509Z,34.00
2019-03-26T16:51:17.161Z,30.90
2019-03-26T16:53:46.875Z,38.07
2019-03-26T16:56:16.560Z,34.47
2019-03-26T16:58:46.241Z,40.47
2019-03-26T17:01:18.443Z,31.23
2019-03-26T17:03:49.422Z,30.77
2019-03-26T17:06:19.202Z,29.50
2019-03-26T17:08:49.029Z,28.90
2019-03-26T17:11:18.716Z,36.00
2019-03-26T17:13:48.438Z,36.07
2019-03-26T17:16:18.158Z,29.93
2019-03-26T17:18:48.188Z,33.17
2019-03-26T17:21:18.569Z,33.70
2019-03-26T17:23:48.430Z,37.27
2019-03-26T17:26:20.847Z,28.13
2019-03-26T17:28:51.742Z,24.23
2019-03-26T17:31:22.310Z,26.23
2019-03-26T17:33:53.090Z,25.10
2019-03-26T17:36:24.308Z,23.40
2019-03-26T17:38:53.930Z,33.07
2019-03-26T17:41:25.960Z,35.57
2019-03-26T17:43:56.392Z,36.83
2019-03-26T17:46:27.672Z,30.60
2019-03-26T17:48:57.342Z,39.13
2019-03-26T17:51:27.067Z,38.73
2019-03-26T17:53:56.945Z,30.57
2019-03-26T17:56:26.603Z,32.37
2019-03-26T17:59:02.524Z,37.23
2019-03-26T18:01:32.167Z,38.27
2019-03-26T18:04:01.821Z,26.83
2019-03-26T18:06:31.576Z,31.50
2019-03-26T18:09:03.076Z,30.33
2019-03-26T18:11:32.709Z,32.13
2019-03-26T18:14:02.392Z,27.47
2019-03-26T18:16:32.007Z,25.40
2019-03-26T18:19:02.881Z,27.40
2019-03-26T18:21:33.927Z,35.60
2019-03-26T18:24:03.569Z,30.93
2019-03-26T18:26:33.482Z,34.40
2019-03-26T18:29:03.179Z,29.47
2019-03-26T18:31:32.818Z,25.83
2019-03-26T18:34:02.472Z,27.73
2019-03-26T18:36:32.452Z,41.17
2019-03-26T18:39:04.324Z,31.83
2019-03-26T18:41:34.012Z,28.77
2019-03-26T18:44:04.993Z,29.40
2019-03-26T18:46:34.602Z,28.17
2019-03-26T18:49:04.258Z,26.77
2019-03-26T18:51:33.940Z,28.97
2019-03-26T18:54:03.622Z,31.13
2019-03-26T18:56:35.325Z,28.67
2019-03-26T18:59:07.556Z,33.17
2019-03-26T19:01:37.238Z,28.33
2019-03-26T19:04:18.387Z,38.30
2019-03-26T19:06:48.215Z,45.40
2019-03-26T19:09:17.950Z,32.37
2019-03-26T19:11:47.712Z,36.23
2019-03-26T19:14:17.402Z,31.57
2019-03-26T19:17:08.893Z,27.83
2019-03-26T19:19:38.613Z,42.00
2019-03-26T19:22:08.274Z,30.47
2019-03-26T19:24:38.088Z,39.30
2019-03-26T19:27:08.007Z,33.40
2019-03-26T19:29:38.276Z,46.47
2019-03-26T19:32:08.000Z,36.43
2019-03-26T19:34:37.742Z,38.97
2019-03-26T19:38:20.313Z,37.93
2019-03-26T19:40:50.510Z,40.47
2019-03-26T19:43:21.799Z,35.97
2019-03-26T19:45:51.640Z,39.93
2019-03-26T19:48:22.938Z,41.60
2019-03-26T19:50:52.963Z,39.93
2019-03-26T19:53:25.370Z,40.53
2019-03-26T19:55:55.280Z,46.43
2019-03-26T19:58:25.450Z,36.83
2019-03-26T20:00:56.496Z,32.80
2019-03-26T20:03:26.444Z,41.57
2019-03-26T20:05:56.384Z,40.10
2019-03-26T20:08:26.249Z,39.10
2019-03-26T20:10:55.950Z,39.63
2019-03-26T20:13:25.654Z,31.53
2019-03-26T20:15:55.483Z,46.97
2019-03-26T20:18:25.170Z,48.33
2019-03-26T20:20:54.983Z,38.90
2019-03-26T20:23:24.727Z,38.03
2019-03-26T20:25:54.454Z,37.70
2019-03-26T20:28:26.595Z,40.97
2019-03-26T20:30:55.575Z,37.00
2019-03-26T20:33:25.258Z,40.70
2019-03-26T20:35:56.629Z,38.50
2019-03-26T20:38:26.387Z,38.67
2019-03-26T20:40:59.055Z,32.20
2019-03-26T20:43:37.135Z,29.37
2019-03-26T20:46:00.145Z,34.00
2019-03-26T20:48:29.835Z,31.60
2019-03-26T20:50:59.471Z,35.67
2019-03-26T20:53:31.690Z,36.03
2019-03-26T20:56:01.934Z,34.17
2019-03-26T20:58:31.614Z,30.93
2019-03-26T21:01:01.572Z,24.30
2019-03-26T21:03:32.460Z,32.67
2019-03-26T21:06:03.715Z,20.87
2019-03-26T21:08:33.461Z,22.93
2019-03-26T21:11:03.956Z,29.73
2019-03-26T21:13:33.941Z,30.67
2019-03-26T21:16:03.620Z,27.13
2019-03-26T21:18:36.016Z,28.37
2019-03-26T21:21:05.671Z,24.67
2019-03-26T21:23:35.377Z,26.47
2019-03-26T21:26:05.172Z,27.37
2019-03-26T21:28:34.856Z,20.47
2019-03-26T21:31:04.539Z,25.33
2019-03-26T21:33:34.202Z,26.57
2019-03-26T21:36:03.939Z,22.40
2019-03-26T21:38:33.626Z,32.20
2019-03-26T21:41:03.234Z,22.83
2019-03-26T21:43:32.964Z,22.10
2019-03-26T21:46:02.697Z,19.67
2019-03-26T21:48:32.337Z,17.73
2019-03-26T21:51:03.307Z,31.47
2019-03-26T21:53:34.923Z,17.50
2019-03-26T21:56:07.173Z,16.47
2019-03-26T21:58:37.116Z,28.77
2019-03-26T22:01:06.868Z,26.00
2019-03-26T22:03:36.555Z,25.40
2019-03-26T22:06:06.300Z,24.10
2019-03-26T22:08:37.425Z,21.03
2019-03-26T22:11:07.012Z,23.27
2019-03-26T22:13:39.230Z,24.70
2019-03-26T22:16:09.362Z,21.03
2019-03-26T22:18:39.022Z,18.27
2019-03-26T22:21:09.036Z,20.10
2019-03-26T22:23:38.771Z,23.53
2019-03-26T22:26:08.490Z,21.47
2019-03-26T22:28:38.178Z,22.60
2019-03-26T22:31:10.658Z,25.13
2019-03-26T22:33:40.921Z,27.43
2019-03-26T22:36:10.626Z,18.67
2019-03-26T22:38:40.427Z,20.37
2019-03-26T22:41:11.270Z,20.63
2019-03-26T22:43:41.040Z,19.30
2019-03-26T22:46:10.676Z,15.80
2019-03-26T22:48:40.473Z,13.77
2019-03-26T22:51:10.143Z,19.50
2019-03-26T22:53:40.176Z,19.87
2019-03-26T22:56:09.907Z,17.17
2019-03-26T22:58:39.558Z,17.57
2019-03-26T23:01:09.399Z,20.33
2019-03-26T23:03:39.177Z,32.80
2019-03-26T23:06:08.871Z,16.73
2019-03-26T23:08:38.599Z,24.40
2019-03-26T23:11:08.297Z,28.53
2019-03-26T23:13:37.955Z,25.40
2019-03-26T23:16:08.367Z,24.83
2019-03-26T23:18:38.139Z,24.03
2019-03-26T23:21:07.943Z,22.43
2019-03-26T23:23:37.624Z,22.10
2019-03-26T23:26:07.353Z,17.13
2019-03-26T23:28:39.398Z,21.27
2019-03-26T23:31:09.094Z,20.60
2019-03-26T23:33:38.788Z,24.93
2019-03-26T23:36:08.584Z,25.70
2019-03-26T23:38:39.801Z,25.93
2019-03-26T23:41:10.842Z,18.70
2019-03-26T23:43:40.560Z,25.73
2019-03-26T23:46:12.048Z,22.37
2019-03-26T23:48:43.762Z,21.17
2019-03-26T23:51:15.900Z,21.80
2019-03-26T23:53:45.887Z,21.73
2019-03-26T23:56:15.840Z,14.10
2019-03-26T23:58:45.538Z,21.57
